createdAt,value
2022-10-19T00:00:02.369Z,18.65
2022-10-19T00:02:09.298Z,20.17
2022-10-19T00:04:12.257Z,19.88
2022-10-19T00:06:17.428Z,20.17
2022-10-19T00:08:20.179Z,20.23
2022-10-19T00:10:22.918Z,21.83
2022-10-19T00:12:25.742Z,22.63
2022-10-19T00:14:28.488Z,24.38
2022-10-19T00:16:33.779Z,21.05
2022-10-19T00:18:37.968Z,20.80
2022-10-19T00:20:40.773Z,21.77
2022-10-19T00:22:43.567Z,22.80
2022-10-19T00:24:46.347Z,22.92
2022-10-19T00:26:49.201Z,22.85
2022-10-19T00:28:54.444Z,21.83
2022-10-19T00:30:57.756Z,19.45
2022-10-19T00:33:00.556Z,20.70
2022-10-19T00:35:05.021Z,19.25
2022-10-19T00:37:07.832Z,18.13
2022-10-19T00:39:16.934Z,16.90
2022-10-19T00:41:20.761Z,17.08
2022-10-19T00:43:25.245Z,17.20
2022-10-19T00:45:28.087Z,17.45
2022-10-19T00:47:31.828Z,15.48
2022-10-19T00:49:38.684Z,17.80
2022-10-19T00:51:46.224Z,15.57
2022-10-19T00:53:49.069Z,16.70
2022-10-19T00:55:52.131Z,18.48
2022-10-19T00:57:55.459Z,14.57
2022-10-19T01:00:00.268Z,18.20
2022-10-19T01:02:05.459Z,17.25
2022-10-19T01:04:08.364Z,20.83
2022-10-19T01:06:12.426Z,21.40
2022-10-19T01:08:16.811Z,20.83
2022-10-19T01:10:26.635Z,17.42
2022-10-19T01:12:47.778Z,21.05
2022-10-19T01:15:05.826Z,22.35
2022-10-19T01:17:17.671Z,25.33
2022-10-19T01:19:41.811Z,26.83
2022-10-19T01:21:48.416Z,25.17
2022-10-19T01:24:24.734Z,25.23
2022-10-19T01:26:47.556Z,25.42
2022-10-19T01:29:06.806Z,29.92
2022-10-19T01:31:20.203Z,26.88
2022-10-19T01:33:32.858Z,30.27
2022-10-19T01:35:42.529Z,29.95
2022-10-19T01:37:49.950Z,28.10
2022-10-19T01:39:56.191Z,27.75
2022-10-19T01:42:03.095Z,28.77
2022-10-19T01:44:14.161Z,29.80
2022-10-19T01:46:22.653Z,30.45
2022-10-19T01:48:30.144Z,33.10
2022-10-19T01:50:37.751Z,34.58
2022-10-19T01:52:41.979Z,34.33
2022-10-19T01:54:48.371Z,30.55
2022-10-19T01:56:53.279Z,31.75
2022-10-19T01:58:59.099Z,30.80
2022-10-19T02:01:06.251Z,29.75
2022-10-19T02:03:12.619Z,27.83
2022-10-19T02:05:17.989Z,25.83
2022-10-19T02:07:23.463Z,24.33
2022-10-19T02:09:26.230Z,25.63
2022-10-19T02:11:30.820Z,22.55
2022-10-19T02:13:34.458Z,23.40
2022-10-19T02:15:41.986Z,23.38
2022-10-19T02:17:49.438Z,20.55
2022-10-19T02:19:54.794Z,19.25
2022-10-19T02:21:58.485Z,21.55
2022-10-19T02:24:01.314Z,17.27
2022-10-19T02:26:04.803Z,16.85
2022-10-19T02:28:07.647Z,20.05
2022-10-19T02:30:11.858Z,20.75
2022-10-19T02:32:15.028Z,18.65
2022-10-19T02:34:17.862Z,23.92
2022-10-19T02:36:22.385Z,24.83
2022-10-19T02:38:26.500Z,20.52
2022-10-19T02:40:33.614Z,25.15
2022-10-19T02:42:41.854Z,22.42
2022-10-19T02:44:49.004Z,24.95
2022-10-19T02:46:56.196Z,19.35
2022-10-19T02:48:59.433Z,18.58
2022-10-19T02:51:02.194Z,20.98
2022-10-19T02:53:06.372Z,25.02
2022-10-19T02:55:10.094Z,25.48
2022-10-19T02:57:17.728Z,21.90
2022-10-19T02:59:20.655Z,21.25
2022-10-19T03:01:23.417Z,21.63
2022-10-19T03:03:26.203Z,22.08
2022-10-19T03:05:28.958Z,17.15
2022-10-19T03:07:32.361Z,21.90
2022-10-19T03:09:36.840Z,18.97
2022-10-19T03:11:39.882Z,20.15
2022-10-19T03:13:43.260Z,18.20
2022-10-19T03:15:46.054Z,20.30
2022-10-19T03:17:48.841Z,20.17
2022-10-19T03:19:52.204Z,18.88
2022-10-19T03:21:55.034Z,21.05
2022-10-19T03:23:57.762Z,18.98
2022-10-19T03:26:01.984Z,21.67
2022-10-19T03:28:04.949Z,22.77
2022-10-19T03:30:08.742Z,21.40
2022-10-19T03:32:11.562Z,22.70
2022-10-19T03:34:14.313Z,23.85
2022-10-19T03:36:21.513Z,24.17
2022-10-19T03:38:24.321Z,21.42
2022-10-19T03:40:27.173Z,22.95
2022-10-19T03:42:31.344Z,22.92
2022-10-19T03:44:34.151Z,24.90
2022-10-19T03:46:38.017Z,25.35
2022-10-19T03:48:40.885Z,23.95
2022-10-19T03:50:43.657Z,24.02
2022-10-19T03:52:46.480Z,25.88
2022-10-19T03:54:51.247Z,25.17
2022-10-19T03:56:54.006Z,25.13
2022-10-19T03:59:00.410Z,24.85
2022-10-19T04:01:03.744Z,25.77
2022-10-19T04:03:06.605Z,18.48
2022-10-19T04:05:09.796Z,24.40
2022-10-19T04:07:12.575Z,21.52
2022-10-19T04:09:17.580Z,23.15
2022-10-19T04:11:24.085Z,20.60
2022-10-19T04:13:26.834Z,22.67
2022-10-19T04:15:30.962Z,20.70
2022-10-19T04:17:33.992Z,22.50
2022-10-19T04:19:37.042Z,20.00
2022-10-19T04:21:41.335Z,20.65
2022-10-19T04:23:44.179Z,20.60
2022-10-19T04:25:46.958Z,22.83
2022-10-19T04:27:49.731Z,25.05
2022-10-19T04:29:52.506Z,24.38
2022-10-19T04:31:56.655Z,22.80
2022-10-19T04:33:59.381Z,23.35
2022-10-19T04:36:03.777Z,21.98
2022-10-19T04:38:06.545Z,23.60
2022-10-19T04:40:14.911Z,22.77
2022-10-19T04:42:18.084Z,20.52
2022-10-19T04:44:21.088Z,21.10
2022-10-19T04:46:23.990Z,21.98
2022-10-19T04:48:28.125Z,22.33
2022-10-19T04:50:30.878Z,23.60
2022-10-19T04:52:35.152Z,19.27
2022-10-19T04:54:37.927Z,19.65
2022-10-19T04:56:40.997Z,22.98
2022-10-19T04:58:44.484Z,21.08
2022-10-19T05:00:47.769Z,22.67
2022-10-19T05:02:50.608Z,20.85
2022-10-19T05:04:54.720Z,19.35
2022-10-19T05:06:57.513Z,25.42
2022-10-19T05:09:00.755Z,26.02
2022-10-19T05:11:04.509Z,27.98
2022-10-19T05:13:07.434Z,28.23
2022-10-19T05:15:11.195Z,28.48
2022-10-19T05:17:13.990Z,25.48
2022-10-19T05:19:16.800Z,26.80
2022-10-19T05:21:21.868Z,27.23
2022-10-19T05:23:24.713Z,27.13
2022-10-19T05:25:27.529Z,26.02
2022-10-19T05:27:30.336Z,27.95
2022-10-19T05:29:33.835Z,26.92
2022-10-19T05:31:36.619Z,26.95
2022-10-19T05:33:40.127Z,27.50
2022-10-19T05:35:42.883Z,27.55
2022-10-19T05:37:47.048Z,26.92
2022-10-19T05:39:49.802Z,26.38
2022-10-19T05:41:52.568Z,28.80
2022-10-19T05:43:57.101Z,24.95
2022-10-19T05:46:04.431Z,23.35
2022-10-19T05:48:07.612Z,25.90
2022-10-19T05:50:10.620Z,22.83
2022-10-19T05:52:13.741Z,23.85
2022-10-19T05:54:18.392Z,17.55
2022-10-19T05:58:24.937Z,21.77
2022-10-19T06:00:27.901Z,23.80
2022-10-19T06:02:30.692Z,20.52
2022-10-19T06:04:33.999Z,22.45
2022-10-19T06:06:36.753Z,22.35
2022-10-19T06:08:40.392Z,21.48
2022-10-19T06:10:44.897Z,19.45
2022-10-19T06:12:47.967Z,20.67
2022-10-19T06:14:51.928Z,20.63
2022-10-19T06:16:54.704Z,20.98
2022-10-19T06:18:58.369Z,20.55
2022-10-19T06:21:03.906Z,22.40
2022-10-19T06:23:06.994Z,20.90
2022-10-19T06:25:10.350Z,21.17
2022-10-19T06:27:14.595Z,23.83
2022-10-19T06:29:17.418Z,25.00
2022-10-19T06:31:20.135Z,25.77
2022-10-19T06:33:22.897Z,24.02
2022-10-19T06:35:25.661Z,20.52
2022-10-19T06:37:28.428Z,31.83
2022-10-19T06:39:31.194Z,35.08
2022-10-19T06:41:34.882Z,34.22
2022-10-19T06:43:56.268Z,34.42
2022-10-19T06:45:59.481Z,37.50
2022-10-19T06:48:05.106Z,33.28
2022-10-19T06:50:11.144Z,33.78
2022-10-19T06:52:13.917Z,33.13
2022-10-19T06:54:16.678Z,36.33
2022-10-19T06:56:19.887Z,30.38
2022-10-19T06:58:22.673Z,32.30
2022-10-19T07:00:26.833Z,31.67
2022-10-19T07:02:29.577Z,28.35
2022-10-19T07:04:32.372Z,23.77
2022-10-19T07:06:35.157Z,26.52
2022-10-19T07:08:39.531Z,29.05
2022-10-19T07:10:42.472Z,26.05
2022-10-19T07:12:45.286Z,29.92
2022-10-19T07:14:48.083Z,30.15
2022-10-19T07:16:52.400Z,28.33
2022-10-19T07:18:55.299Z,26.77
2022-10-19T07:20:59.254Z,27.15
2022-10-19T07:23:02.584Z,27.92
2022-10-19T07:25:06.138Z,28.77
2022-10-19T07:27:08.894Z,26.83
2022-10-19T07:29:12.094Z,27.60
2022-10-19T07:31:17.757Z,26.67
2022-10-19T07:33:21.913Z,27.25
2022-10-19T07:35:24.816Z,24.60
2022-10-19T07:37:27.588Z,24.92
2022-10-19T07:39:30.372Z,24.08
2022-10-19T07:41:34.586Z,21.65
2022-10-19T07:43:37.369Z,22.42
2022-10-19T07:45:40.142Z,19.23
2022-10-19T07:47:43.100Z,23.48
2022-10-19T07:49:47.436Z,26.38
2022-10-19T07:51:53.771Z,20.27
2022-10-19T07:53:56.662Z,25.88
2022-10-19T07:56:05.536Z,23.25
2022-10-19T07:58:08.357Z,21.70
2022-10-19T08:00:12.949Z,23.80
2022-10-19T08:02:17.222Z,22.40
2022-10-19T08:06:44.175Z,24.60
2022-10-19T08:08:47.992Z,24.00
2022-10-19T08:10:50.868Z,23.73
2022-10-19T08:12:53.749Z,23.42
2022-10-19T08:14:56.616Z,26.40
2022-10-19T08:16:59.520Z,21.83
2022-10-19T08:19:04.277Z,22.30
2022-10-19T08:21:07.451Z,24.33
2022-10-19T08:23:11.729Z,21.33
2022-10-19T08:25:14.647Z,22.88
2022-10-19T08:27:17.422Z,20.27
2022-10-19T08:29:21.867Z,20.63
2022-10-19T08:31:24.675Z,23.35
2022-10-19T08:33:28.003Z,23.05
2022-10-19T08:35:31.836Z,23.40
2022-10-19T08:37:45.128Z,22.83
2022-10-19T08:39:49.871Z,21.40
2022-10-19T08:42:03.698Z,21.60
2022-10-19T08:44:27.842Z,16.73
2022-10-19T08:46:39.346Z,24.15
2022-10-19T08:48:43.031Z,19.60
2022-10-19T08:50:48.057Z,16.00
2022-10-19T08:52:55.461Z,13.95
2022-10-19T08:55:04.340Z,14.50
2022-10-19T08:57:16.518Z,14.57
2022-10-19T08:59:31.859Z,15.00
2022-10-19T09:01:41.330Z,12.90
2022-10-19T09:03:55.329Z,15.23
2022-10-19T09:06:06.811Z,15.63
2022-10-19T09:08:15.305Z,14.55
2022-10-19T09:10:25.539Z,13.98
2022-10-19T09:12:44.033Z,11.93
2022-10-19T09:14:56.779Z,11.43
2022-10-19T09:17:03.681Z,14.07
2022-10-19T09:19:16.123Z,14.13
2022-10-19T09:21:30.887Z,13.35
2022-10-19T09:23:42.980Z,14.77
2022-10-19T09:25:49.634Z,13.98
2022-10-19T09:28:03.156Z,12.82
2022-10-19T09:30:16.075Z,17.48
2022-10-19T09:32:22.984Z,23.42
2022-10-19T09:34:30.881Z,24.45
2022-10-19T09:36:50.603Z,21.92
2022-10-19T09:38:53.803Z,24.45
2022-10-19T09:40:59.880Z,24.23
2022-10-19T09:43:19.392Z,21.08
2022-10-19T09:45:30.680Z,20.80
2022-10-19T09:47:36.911Z,24.85
2022-10-19T09:49:41.803Z,21.60
2022-10-19T09:53:54.937Z,21.27
2022-10-19T09:56:07.075Z,21.98
2022-10-19T09:58:18.483Z,20.75
2022-10-19T10:00:23.882Z,18.17
2022-10-19T10:02:32.157Z,17.13
2022-10-19T10:04:36.397Z,17.65
2022-10-19T10:06:40.463Z,16.88
2022-10-19T10:08:48.417Z,16.63
2022-10-19T10:11:06.780Z,15.73
2022-10-19T10:13:17.240Z,15.18
2022-10-19T10:15:24.569Z,13.18
2022-10-19T10:17:31.486Z,14.65
2022-10-19T10:21:59.638Z,12.20
2022-10-19T10:24:06.328Z,12.10
2022-10-19T10:26:19.212Z,12.23
2022-10-19T10:28:33.624Z,10.55
2022-10-19T10:30:38.209Z,11.90
2022-10-19T10:32:48.739Z,10.95
2022-10-19T10:35:01.096Z,9.85
2022-10-19T10:37:06.826Z,10.48
2022-10-19T10:39:16.427Z,9.27
2022-10-19T10:41:23.117Z,10.57
2022-10-19T10:43:31.251Z,10.07
2022-10-19T10:45:39.244Z,12.13
2022-10-19T10:47:48.140Z,12.07
2022-10-19T10:49:57.704Z,11.23
2022-10-19T10:52:05.362Z,10.88
2022-10-19T10:54:16.763Z,8.50
2022-10-19T10:56:27.552Z,10.73
2022-10-19T10:58:38.030Z,8.52
2022-10-19T11:00:43.080Z,10.02
2022-10-19T11:02:52.131Z,8.13
2022-10-19T11:05:00.383Z,7.80
2022-10-19T11:07:13.763Z,8.55
2022-10-19T11:09:25.402Z,9.85
2022-10-19T11:11:35.225Z,8.93
2022-10-19T11:13:43.837Z,8.80
2022-10-19T11:15:54.924Z,8.93
2022-10-19T11:18:15.979Z,9.52
2022-10-19T11:20:19.288Z,8.82
2022-10-19T11:22:29.493Z,9.32
2022-10-19T11:24:50.601Z,7.75
2022-10-19T11:27:06.900Z,6.65
2022-10-19T11:29:31.735Z,8.13
2022-10-19T11:31:42.799Z,7.35
2022-10-19T11:33:56.074Z,7.10
2022-10-19T11:36:00.510Z,6.38
2022-10-19T11:38:20.656Z,5.93
2022-10-19T11:40:32.293Z,6.63
2022-10-19T11:42:48.474Z,6.10
2022-10-19T11:45:02.173Z,5.50
2022-10-19T11:47:21.484Z,5.80
2022-10-19T11:49:40.503Z,4.90
2022-10-19T11:51:51.530Z,4.03
2022-10-19T11:54:09.929Z,3.88
2022-10-19T11:56:20.759Z,5.03
2022-10-19T11:58:36.282Z,4.25
2022-10-19T12:00:47.891Z,4.13
2022-10-19T12:03:27.188Z,4.20
2022-10-19T12:05:35.767Z,4.53
2022-10-19T12:08:01.732Z,3.63
2022-10-19T12:10:13.029Z,3.55
2022-10-19T12:12:27.227Z,3.00
2022-10-19T12:14:33.248Z,3.00
2022-10-19T12:16:41.262Z,3.42
2022-10-19T12:18:47.483Z,2.78
2022-10-19T12:20:53.490Z,2.75
2022-10-19T12:22:58.811Z,2.60
2022-10-19T12:25:02.810Z,2.78
2022-10-19T12:27:06.311Z,3.13
2022-10-19T12:29:16.736Z,3.30
2022-10-19T12:31:19.945Z,2.72
2022-10-19T12:33:32.305Z,3.17
2022-10-19T12:35:54.093Z,2.97
2022-10-19T12:38:01.423Z,2.83
2022-10-19T12:40:09.915Z,3.05
2022-10-19T12:42:22.554Z,3.05
2022-10-19T12:44:58.675Z,3.35
2022-10-19T12:47:11.483Z,3.20
2022-10-19T12:49:44.501Z,2.25
2022-10-19T12:51:48.075Z,3.00
2022-10-19T12:53:51.039Z,2.88
2022-10-19T12:56:01.217Z,2.72
2022-10-19T12:58:07.092Z,2.33
2022-10-19T13:00:21.329Z,2.78
2022-10-19T13:02:29.262Z,2.63
2022-10-19T13:04:34.798Z,2.60
2022-10-19T13:06:43.010Z,2.17
2022-10-19T13:08:49.487Z,2.58
2022-10-19T13:11:05.330Z,2.25
2022-10-19T13:13:57.863Z,2.08
2022-10-19T13:16:00.637Z,2.65
2022-10-19T13:18:05.186Z,2.25
2022-10-19T13:22:30.610Z,2.15
2022-10-19T13:24:36.156Z,2.00
2022-10-19T13:26:39.035Z,2.25
2022-10-19T13:28:53.596Z,2.13
2022-10-19T13:31:07.137Z,1.98
2022-10-19T13:33:48.623Z,1.80
2022-10-19T13:36:07.259Z,2.05
2022-10-19T13:38:30.326Z,1.45
2022-10-19T13:40:33.519Z,1.65
2022-10-19T13:42:36.820Z,1.67
2022-10-19T13:44:47.212Z,1.52
2022-10-19T13:47:10.765Z,1.67
2022-10-19T13:49:32.655Z,2.10
2022-10-19T13:51:45.738Z,1.65
2022-10-19T13:53:56.051Z,1.88
2022-10-19T13:56:23.568Z,1.60
2022-10-19T13:59:08.608Z,1.73
2022-10-19T14:01:28.219Z,1.50
2022-10-19T14:03:42.975Z,1.63
2022-10-19T14:08:09.824Z,1.58
2022-10-19T14:10:18.490Z,1.40
2022-10-19T14:12:24.958Z,1.67
2022-10-19T14:14:29.473Z,1.50
2022-10-19T14:18:37.505Z,1.65
2022-10-19T14:20:40.587Z,1.50
2022-10-19T14:22:43.379Z,2.03
2022-10-19T14:24:46.510Z,1.55
2022-10-19T14:26:50.674Z,1.35
2022-10-19T14:28:55.137Z,1.85
2022-10-19T14:31:00.387Z,1.38
2022-10-19T14:33:09.726Z,1.52
2022-10-19T14:35:21.756Z,2.30
2022-10-19T14:37:26.758Z,1.60
2022-10-19T14:39:33.441Z,1.50
2022-10-19T14:41:37.976Z,1.42
2022-10-19T14:45:44.717Z,1.60
2022-10-19T14:47:55.621Z,1.63
2022-10-19T14:49:58.502Z,1.65
2022-10-19T14:52:04.292Z,1.95
2022-10-19T14:54:09.659Z,1.83
2022-10-19T14:56:18.070Z,1.60
2022-10-19T14:58:23.436Z,1.38
2022-10-19T15:00:28.206Z,2.53
2022-10-19T15:02:34.932Z,2.80
2022-10-19T15:04:39.735Z,2.90
2022-10-19T15:06:43.093Z,2.60
2022-10-19T15:08:50.434Z,3.00
2022-10-19T15:10:53.988Z,3.42
2022-10-19T15:13:02.307Z,3.22
2022-10-19T15:15:10.037Z,2.85
2022-10-19T15:17:25.783Z,3.00
2022-10-19T15:19:31.753Z,3.25
2022-10-19T15:21:34.820Z,3.10
2022-10-19T15:23:42.371Z,4.47
2022-10-19T15:25:47.048Z,6.07
2022-10-19T15:27:50.890Z,5.38
2022-10-19T15:29:57.572Z,4.23
2022-10-19T15:32:14.681Z,3.85
2022-10-19T15:34:25.712Z,3.33
2022-10-19T15:36:30.478Z,3.30
2022-10-19T15:38:34.650Z,4.25
2022-10-19T15:40:39.818Z,3.47
2022-10-19T15:42:44.394Z,3.90
2022-10-19T15:47:19.190Z,4.20
2022-10-19T15:49:57.974Z,4.22
2022-10-19T15:52:00.778Z,4.80
2022-10-19T15:54:06.306Z,6.35
2022-10-19T15:56:12.404Z,5.20
2022-10-19T15:58:18.192Z,5.25
2022-10-19T16:00:21.945Z,4.82
2022-10-19T16:02:25.247Z,5.10
2022-10-19T16:04:27.951Z,4.55
2022-10-19T16:06:34.607Z,5.35
2022-10-19T16:08:37.347Z,5.00
2022-10-19T16:10:40.435Z,5.03
2022-10-19T16:12:43.431Z,4.85
2022-10-19T16:14:46.230Z,4.78
2022-10-19T16:16:50.127Z,4.97
2022-10-19T16:18:53.611Z,5.25
2022-10-19T16:20:56.527Z,5.18
2022-10-19T16:23:00.955Z,5.15
2022-10-19T16:25:03.728Z,5.38
2022-10-19T16:27:07.802Z,5.55
2022-10-19T16:29:10.605Z,5.03
2022-10-19T16:31:13.392Z,5.38
2022-10-19T16:33:16.337Z,5.40
2022-10-19T16:35:19.127Z,5.18
2022-10-19T16:37:21.928Z,5.50
2022-10-19T16:39:26.143Z,5.10
2022-10-19T16:41:29.042Z,4.88
2022-10-19T16:43:32.270Z,4.97
2022-10-19T16:45:35.432Z,4.43
2022-10-19T16:47:38.245Z,4.78
2022-10-19T16:49:41.131Z,5.85
2022-10-19T16:51:43.914Z,5.68
2022-10-19T16:53:46.848Z,5.40
2022-10-19T16:55:50.892Z,5.22
2022-10-19T16:57:57.595Z,5.32
2022-10-19T17:00:00.398Z,5.25
2022-10-19T17:02:03.366Z,5.13
2022-10-19T17:04:06.486Z,5.05
2022-10-19T17:06:15.235Z,4.60
2022-10-19T17:08:18.092Z,4.65
2022-10-19T17:10:20.890Z,5.50
2022-10-19T17:12:25.059Z,5.20
2022-10-19T17:14:27.959Z,4.80
2022-10-19T17:16:32.800Z,5.18
2022-10-19T17:18:36.467Z,5.30
2022-10-19T17:20:39.928Z,5.97
2022-10-19T17:22:42.745Z,4.43
2022-10-19T17:24:47.240Z,5.32
2022-10-19T17:26:51.183Z,5.45
2022-10-19T17:28:56.143Z,6.47
2022-10-19T17:31:03.942Z,6.57
2022-10-19T17:33:06.745Z,5.78
2022-10-19T17:35:09.648Z,5.90
2022-10-19T17:37:12.470Z,6.50
2022-10-19T17:39:18.058Z,5.57
2022-10-19T17:41:22.087Z,5.72
2022-10-19T17:43:24.872Z,5.05
2022-10-19T17:45:29.357Z,6.35
2022-10-19T17:47:35.705Z,5.55
2022-10-19T17:49:38.877Z,6.43
2022-10-19T17:51:42.296Z,6.75
2022-10-19T17:53:46.982Z,6.35
2022-10-19T17:57:52.288Z,7.10
2022-10-19T17:59:55.227Z,6.20
2022-10-19T18:01:59.465Z,6.47
2022-10-19T18:04:02.363Z,5.32
2022-10-19T18:06:10.730Z,5.40
2022-10-19T18:08:13.959Z,5.75
2022-10-19T18:10:16.863Z,6.00
2022-10-19T18:12:19.628Z,5.53
2022-10-19T18:14:22.495Z,6.13
2022-10-19T18:16:27.782Z,6.22
2022-10-19T18:18:33.386Z,6.93
2022-10-19T18:20:39.862Z,6.43
2022-10-19T18:24:50.433Z,6.93
2022-10-19T18:26:53.360Z,7.75
2022-10-19T18:28:57.020Z,6.80
2022-10-19T18:31:06.219Z,7.85
2022-10-19T18:33:09.646Z,7.38
2022-10-19T18:35:13.772Z,8.02
2022-10-19T18:37:16.549Z,8.25
2022-10-19T18:39:19.681Z,7.55
2022-10-19T18:41:22.849Z,7.72
2022-10-19T18:43:25.695Z,7.57
2022-10-19T18:45:28.451Z,8.27
2022-10-19T18:47:31.943Z,8.38
2022-10-19T18:49:35.033Z,8.02
2022-10-19T18:51:39.527Z,7.60
2022-10-19T18:53:43.010Z,7.57
2022-10-19T18:55:46.054Z,8.50
2022-10-19T18:57:48.880Z,6.88
2022-10-19T18:59:51.635Z,7.88
2022-10-19T19:01:54.501Z,7.70
2022-10-19T19:04:00.588Z,7.35
2022-10-19T19:06:04.971Z,6.50
2022-10-19T19:08:09.118Z,6.82
2022-10-19T19:10:12.970Z,6.97
2022-10-19T19:12:15.970Z,6.00
2022-10-19T19:14:21.794Z,5.93
2022-10-19T19:16:25.488Z,6.53
2022-10-19T19:18:29.135Z,7.03
2022-10-19T19:20:31.984Z,6.38
2022-10-19T19:22:35.541Z,5.55
2022-10-19T19:24:42.889Z,6.63
2022-10-19T19:26:48.356Z,6.70
2022-10-19T19:28:51.861Z,6.75
2022-10-19T19:30:54.833Z,6.97
2022-10-19T19:32:57.893Z,5.97
2022-10-19T19:35:00.793Z,6.57
2022-10-19T19:37:07.248Z,9.18
2022-10-19T19:39:11.606Z,8.77
2022-10-19T19:41:16.577Z,8.43
2022-10-19T19:43:20.012Z,6.40
2022-10-19T19:45:22.776Z,7.60
2022-10-19T19:47:25.711Z,7.30
2022-10-19T19:49:28.820Z,9.98
2022-10-19T19:51:32.931Z,10.15
2022-10-19T19:53:35.684Z,9.60
2022-10-19T19:55:39.172Z,9.15
2022-10-19T19:57:43.542Z,10.10
2022-10-19T19:59:46.340Z,10.55
2022-10-19T20:01:51.987Z,10.52
2022-10-19T20:03:54.998Z,9.60
2022-10-19T20:06:02.392Z,9.30
2022-10-19T20:08:06.007Z,9.43
2022-10-19T20:10:10.172Z,7.50
2022-10-19T20:12:13.361Z,9.80
2022-10-19T20:14:18.672Z,10.68
2022-10-19T20:16:26.629Z,8.82
2022-10-19T20:18:31.950Z,27.25
2022-10-19T20:20:34.754Z,40.95
2022-10-19T20:22:38.154Z,32.92
2022-10-19T20:24:40.987Z,19.65
2022-10-19T20:26:43.816Z,35.15
2022-10-19T20:28:46.997Z,22.13
2022-10-19T20:31:00.183Z,29.17
2022-10-19T20:33:03.083Z,22.83
2022-10-19T20:35:07.332Z,27.30
2022-10-19T20:37:11.709Z,25.88
2022-10-19T20:39:14.620Z,20.58
2022-10-19T20:41:18.640Z,19.45
2022-10-19T20:43:21.627Z,19.00
2022-10-19T20:45:26.801Z,12.35
2022-10-19T20:47:31.076Z,11.32
2022-10-19T20:49:33.894Z,11.57
2022-10-19T20:51:38.249Z,11.23
2022-10-19T20:53:41.721Z,12.48
2022-10-19T20:55:44.515Z,9.55
2022-10-19T20:57:47.278Z,9.48
2022-10-19T20:59:50.279Z,10.70
2022-10-19T21:01:54.725Z,10.82
2022-10-19T21:04:01.314Z,8.75
2022-10-19T21:06:05.913Z,9.80
2022-10-19T21:10:12.352Z,8.63
2022-10-19T21:12:15.247Z,9.88
2022-10-19T21:14:23.755Z,9.48
2022-10-19T21:16:33.561Z,9.57
2022-10-19T21:18:36.374Z,7.53
2022-10-19T21:20:40.490Z,10.07
2022-10-19T21:22:43.532Z,10.15
2022-10-19T21:24:46.559Z,10.93
2022-10-19T21:28:57.893Z,11.80
2022-10-19T21:31:03.676Z,11.57
2022-10-19T21:33:06.436Z,10.35
2022-10-19T21:35:09.405Z,9.88
2022-10-19T21:37:13.537Z,10.70
2022-10-19T21:39:16.762Z,9.90
2022-10-19T21:41:23.873Z,11.32
2022-10-19T21:43:30.024Z,11.57
2022-10-19T21:45:32.760Z,10.95
2022-10-19T21:47:35.910Z,11.05
2022-10-19T21:49:38.847Z,10.10
2022-10-19T21:51:44.594Z,11.15
2022-10-19T21:53:48.746Z,11.75
2022-10-19T21:55:51.936Z,11.13
2022-10-19T21:57:54.858Z,11.50
2022-10-19T21:59:57.675Z,9.73
2022-10-19T22:02:00.515Z,10.65
2022-10-19T22:04:05.575Z,10.50
2022-10-19T22:06:08.923Z,10.43
2022-10-19T22:08:11.671Z,10.82
2022-10-19T22:10:15.795Z,11.40
2022-10-19T22:12:18.558Z,11.68
2022-10-19T22:14:21.394Z,10.38
2022-10-19T22:16:25.538Z,10.00
2022-10-19T22:18:28.282Z,9.65
2022-10-19T22:20:31.063Z,10.43
2022-10-19T22:22:34.160Z,9.70
2022-10-19T22:24:37.182Z,10.43
2022-10-19T22:26:43.905Z,11.05
2022-10-19T22:28:46.709Z,10.25
2022-10-19T22:30:54.541Z,9.35
2022-10-19T22:32:57.424Z,10.07
2022-10-19T22:35:00.273Z,9.88
2022-10-19T22:37:03.219Z,11.15
2022-10-19T22:39:06.707Z,9.90
2022-10-19T22:41:09.748Z,8.88
2022-10-19T22:43:13.900Z,10.43
2022-10-19T22:45:16.883Z,9.63
2022-10-19T22:47:19.779Z,10.48
2022-10-19T22:49:22.587Z,10.35
2022-10-19T22:51:25.393Z,10.45
2022-10-19T22:53:28.182Z,11.93
2022-10-19T22:55:31.009Z,11.48
2022-10-19T22:57:33.771Z,10.45
2022-10-19T22:59:37.972Z,11.95
2022-10-19T23:01:40.799Z,10.80
2022-10-19T23:03:44.219Z,11.18
2022-10-19T23:05:46.983Z,11.45
2022-10-19T23:07:49.719Z,10.88
2022-10-19T23:09:52.513Z,13.27
2022-10-19T23:11:55.317Z,10.32
2022-10-19T23:13:58.086Z,11.70
2022-10-19T23:16:02.531Z,10.45
2022-10-19T23:18:05.324Z,10.52
2022-10-19T23:20:09.222Z,11.52
2022-10-19T23:22:11.953Z,11.90
2022-10-19T23:24:14.768Z,12.35
2022-10-19T23:26:19.444Z,13.13
2022-10-19T23:30:24.820Z,13.25
2022-10-19T23:32:28.948Z,11.55
2022-10-19T23:34:31.770Z,12.02
2022-10-19T23:36:34.574Z,10.20
2022-10-19T23:38:37.468Z,9.60
2022-10-19T23:40:40.224Z,10.98
2022-10-19T23:42:43.031Z,9.20
2022-10-19T23:44:46.325Z,11.00
2022-10-19T23:46:49.082Z,11.52
2022-10-19T23:48:53.165Z,12.52
2022-10-19T23:51:00.571Z,12.32
2022-10-19T23:53:03.603Z,12.35
2022-10-19T23:55:07.582Z,10.73
2022-10-19T23:57:10.356Z,10.48
2022-10-19T23:59:13.108Z,10.63
